ADDS METAR Data INFO
IDs: Format: Raw Decoded Include TAF

Data at: 1611 UTC 14 Aug 2018

KOXC 141551Z 20006KT 10SM BKN023 BKN038 26/21 A2990 RMK AO2 LTG DSNT SW SLP131 T02560211
KOXC 141458Z 19012KT 10SM BKN018 26/21 A2991 RMK AO2 LTG DSNT NE
KOXC 141451Z 20007KT 10SM BKN012 BKN048 25/21 A2991 RMK AO2 LTG DSNT NE SLP135 T02500211 56003
KOXC 141437Z 17009KT 10SM BKN012 BKN048 26/22 A2991 RMK AO2
KOXC 141351Z 19007KT 10SM BKN009 BKN018 23/22 A2991 RMK AO2 CIG 007V011 SLP136 T02330222
KOXC 141311Z 18006KT 3SM BR BKN004 OVC006 23/22 A2992 RMK AO2
KOXC 141251Z 18004KT 2SM BR OVC002 22/22 A2991 RMK AO2 SLP137 T02220222
KOXC 141151Z 16005KT 3/4SM BR OVC002 22/22 A2992 RMK AO2 SLP139 70099 T02170217 10217 20206 51005
KOXC 141051Z 16004KT 1/2SM FG OVC001 21/21 A2992 RMK AO2 SLP140 T02110211
KOXC 140951Z AUTO 14003KT 1/4SM FG OVC001 21/21 A2991 RMK AO2 SLP137 T02060206
KOXC 140939Z AUTO 18003KT 1/2SM FG OVC003 21/21 A2991 RMK AO2
KOXC 140931Z AUTO 18003KT 1 3/4SM BR OVC003 21/21 A2991 RMK AO2 CIG 001V006
KOXC 140925Z AUTO 17004KT 3SM BR OVC003 21/21 A2991 RMK AO2
KOXC 140851Z AUTO 19003KT 3SM BR OVC005 21/21 A2990 RMK AO2 SLP135 T02060206 56004
KOXC 140832Z AUTO 14003KT 3SM BR OVC005 21/21 A2990 RMK AO2
KOXC 140751Z AUTO 00000KT 2SM BR OVC003 21/21 A2990 RMK AO2 VIS 1 1/4V3 SLP135 T02060206
KOXC 140744Z AUTO 00000KT 3SM BR OVC003 21/21 A2991 RMK AO2
KOXC 140739Z AUTO 00000KT 1 3/4SM BR OVC003 21/21 A2990 RMK AO2
KOXC 140732Z AUTO 00000KT 2SM BR OVC003 21/21 A2991 RMK AO2
KOXC 140719Z AUTO 00000KT 1SM BR BKN003 21/21 A2991 RMK AO2 CIG 001V006
KOXC 140711Z AUTO 00000KT 1/4SM FG BKN003 BKN007 21/21 A2991 RMK AO2 CIG 002V006
KOXC 140659Z AUTO 00000KT 1/2SM FG BKN005 21/21 A2992 RMK AO2 CIG 002V007
KOXC 140655Z AUTO 00000KT 1 1/2SM BR SCT003 BKN007 21/21 A2992 RMK AO2
KOXC 140651Z AUTO 00000KT 3SM BR BKN003 BKN007 21/21 A2991 RMK AO2 SLP138 T02110211
KOXC 140647Z AUTO 00000KT 3SM BR BKN003 OVC008 21/21 A2992 RMK AO2
KOXC 140636Z AUTO 00000KT 2 1/2SM BR BKN003 OVC008 21/21 A2992 RMK AO2 CIG 001V007
KOXC 140627Z AUTO 00000KT 3SM BR BKN005 OVC008 21/21 A2993 RMK AO2 CIG 001V007
KOXC 140615Z AUTO 00000KT 2 1/2SM BR OVC005 21/21 A2993 RMK AO2 CIG 002V008
KOXC 140551Z AUTO 22003KT 4SM BR OVC002 21/21 A2993 RMK AO2 CIG 001V005 SLP144 60000 T02110211 10217 20211 57002
KOXC 140544Z AUTO 19003KT 3SM BR OVC002 21/21 A2993 RMK AO2 CIG 001V006
KOXC 140523Z AUTO 18005KT 2SM BR BKN004 21/21 A2993 RMK AO2 VIS 3/4V4
KOXC 140515Z AUTO 19003KT 4SM BR BKN004 21/21 A2993 RMK AO2
KOXC 140451Z AUTO 13003KT 6SM BR SCT004 SCT011 22/21 A2993 RMK AO2 SLP143 T02170211 402170200
KOXC 140351Z AUTO 17005KT 10SM OVC004 22/22 A2994 RMK AO2 CIG 003V007 SLP145 T02170217
KOXC 140251Z AUTO 14004KT 8SM OVC004 22/21 A2994 RMK AO2 RAB06E22 SLP145 P0000 60000 T02170211 51003
KOXC 140219Z AUTO 13003KT 10SM -RA OVC004 21/21 A2994 RMK AO2 RAB06 P0000
KOXC 140206Z AUTO 10003KT 8SM -RA OVC002 21/21 A2994 RMK AO2 RAB06 CIG 002V006 P0000
KOXC 140151Z AUTO 08005KT 10SM OVC004 21/21 A2993 RMK AO2 RAB0058E10 SLP145 P0000 T02110211
KOXC 140051Z 08004KT 10SM BKN004 OVC009 21/21 A2993 RMK AO2 CIG 004V007 SLP143 T02110206
KOXC 140040Z VRB05KT 6SM BR OVC006 21/21 A2993 RMK AO2
KOXC 132351Z 07006KT 5SM BR OVC003 21/21 A2993 RMK AO2 RAE16 SLP141 P0002 60061 T02110206 10211 20211 55007
KOXC 132251Z 06007KT 3SM -RA BR OVC004 21/21 A2993 RMK AO2 CIG 004V007 SLP140 P0006 T02110206
KOXC 132151Z 07010KT 3SM -RA BR OVC005 21/21 A2994 RMK AO2 SLP145 P0006 T02110206
KOXC 132135Z 06013G16KT 2 1/2SM -RA BR OVC005 21/21 A2994 RMK AO2 P0004
KOXC 132051Z 06011KT 6SM -RA BR OVC006 21/21 A2995 RMK AO2 RAB47 SLP149 P0000 60047 T02110206 58017
KOXC 131951Z 06010KT 7SM OVC006 21/21 A2997 RMK AO2 RAE47 CIG 004V010 SLP156 P0003 T02110206
KOXC 131851Z 06012KT 4SM -RA BR OVC006 21/21 A2999 RMK AO2 CIG 004V009 SLP162 P0044 T02110206
KOXC 131848Z 06012KT 020V090 4SM -RA BR OVC006 21/21 A2998 RMK AO2 CIG 003V008 P0044
KOXC 131751Z 03010KT 1 1/2SM +RA BR OVC004 21/21 A3000 RMK AO2 SLP168 P0020 60038 T02110206 10211 20200 58020
KOXC 131745Z 03008KT 1 1/2SM +RA BR OVC004 21/21 A3001 RMK AO2 P0016
KOXC 131651Z 03010KT 6SM RA BR OVC005 21/21 A3002 RMK AO2 SLP174 P0009 T02110206
KOXC 131551Z 04010KT 6SM -RA BR OVC005 21/21 A3004 RMK AO2 RAB1457 CIG 004V009 SLP183 P0009 T02110206
KOXC 131451Z 03009KT 8SM OVC005 21/20 A3006 RMK AO2 RAB25E38 SLP188 P0000 60000 T02110200 58006
KOXC 131351Z 05008KT 8SM OVC005 21/20 A3007 RMK AO2 SLP190 T02110200
KOXC 131251Z 04008KT 8SM OVC005 20/19 A3008 RMK AO2 SLP193 T02000194
KOXC 131151Z 06008KT 10SM OVC005 20/19 A3008 RMK AO2 SLP194 70001 T02000194 10206 20200 53002
KOXC 131051Z 07010KT 3SM BR OVC003 20/19 A3007 RMK AO2 SLP191 T02000194
KOXC 130951Z COR 06007G14KT 3SM BR OVC003 20/19 A3007 RMK AO2 SLP192 T02000194
KOXC 130948Z AUTO 05007G14KT 7SM OVC003 20/19 A3007 RMK AO2
KOXC 130851Z AUTO 05008KT 5SM BR OVC005 20/19 A3007 RMK AO2 SLP192 T02000194 56008
KOXC 130751Z AUTO 05006KT 8SM OVC005 20/19 A3008 RMK AO2 SLP194 T02000194
KOXC 130651Z AUTO 03008KT 7SM OVC005 21/20 A3009 RMK AO2 SLP197 T02060200
KOXC 130551Z AUTO 06009KT 8SM OVC005 21/20 A3010 RMK AO2 SLP200 60001 T02060200 10228 20206 58004
KOXC 130451Z AUTO 05010KT 10SM OVC007 21/20 A3012 RMK AO2 SLP206 T02110200 402610200